createdAt,value
2023-05-17T02:28:14.669Z,4.7
2023-05-17T02:30:46.923Z,0
2023-05-17T02:35:07.909Z,4.2
2023-05-17T02:38:00.993Z,4.5
2023-05-17T02:40:39.449Z,4
2023-05-17T02:45:13.289Z,7.3
2023-05-17T02:53:27.773Z,6
2023-05-17T02:57:45.330Z,5.3
2023-05-17T03:00:36.166Z,4.5
2023-05-17T03:03:13.153Z,0
2023-05-17T03:07:42.927Z,5
2023-05-17T03:10:40.373Z,5.5
2023-05-17T03:15:51.891Z,0
2023-05-17T03:31:00.816Z,4.1
2023-05-17T03:36:37.449Z,0
2023-05-17T03:39:04.202Z,4
2023-05-17T03:44:18.487Z,0
2023-05-17T04:34:59.947Z,4
2023-05-17T04:37:15.050Z,4.4
2023-05-17T04:39:15.547Z,4.7
2023-05-17T04:44:41.543Z,5.7
2023-05-17T04:52:06.455Z,4
2023-05-17T04:57:15.973Z,4.7
2023-05-17T05:07:54.321Z,4
2023-05-17T05:12:18.797Z,4.7
2023-05-17T05:22:36.321Z,8.5
2023-05-17T05:29:57.016Z,8.2
2023-05-17T05:32:59.278Z,5.4
2023-05-17T05:35:46.767Z,6.6
2023-05-17T05:38:19.971Z,9.3
2023-05-17T05:40:38.786Z,7.5
2023-05-17T05:48:16.843Z,7.3
2023-05-17T05:50:42.078Z,7.1
2023-05-17T05:55:52.968Z,7.5
2023-05-17T05:58:38.910Z,7.8
2023-05-17T06:01:10.281Z,10.4
2023-05-17T06:05:29.763Z,8.6
2023-05-17T06:08:22.129Z,7.1
2023-05-17T06:10:59.821Z,7.5
2023-05-17T06:13:23.023Z,7.7
2023-05-17T06:18:30.501Z,12
2023-05-17T06:23:44.311Z,7.5
2023-05-17T06:28:00.351Z,10.8
2023-05-17T06:33:26.577Z,7.5
2023-05-17T06:40:51.991Z,8.1
2023-05-17T06:48:15.531Z,10.9
2023-05-17T06:54:06.817Z,9.6
2023-05-17T06:59:00.976Z,8.2
2023-05-17T07:01:06.138Z,9.9
2023-05-17T07:04:01.091Z,10.4
2023-05-17T07:09:07.358Z,8.1
2023-05-17T07:11:18.780Z,11
2023-05-17T07:14:20.017Z,11.9
2023-05-17T07:19:39.145Z,9.3
2023-05-17T07:21:57.089Z,14.5
2023-05-17T07:24:00.593Z,16.5
2023-05-17T07:29:32.272Z,11.5
2023-05-17T07:31:56.530Z,12.4
2023-05-17T07:37:05.576Z,10.9
2023-05-17T07:46:38.801Z,13.6
2023-05-17T07:56:37.383Z,12.1
2023-05-17T08:04:46.651Z,13.6
2023-05-17T08:10:04.584Z,16.1
2023-05-17T08:12:54.131Z,16.5
2023-05-17T08:17:49.555Z,12
2023-05-17T08:19:55.877Z,13.5
2023-05-17T08:22:51.608Z,13.2
2023-05-17T08:25:32.864Z,18.7
2023-05-17T08:33:14.598Z,13.7
2023-05-17T08:48:31.878Z,15.4
2023-05-17T08:50:56.782Z,14.6
2023-05-17T08:52:56.135Z,20.1
2023-05-17T08:58:56.846Z,17.8
2023-05-17T09:01:25.752Z,14.2
2023-05-17T09:11:14.112Z,15.9
2023-05-17T09:13:37.377Z,14.1
2023-05-17T09:15:46.114Z,11.8
2023-05-17T09:18:44.580Z,10.6
2023-05-17T09:21:28.526Z,9.8
2023-05-17T09:31:04.281Z,15.5
2023-05-17T09:33:40.420Z,12.8
2023-05-17T09:36:01.902Z,10.2
2023-05-17T09:38:08.820Z,14.3
2023-05-17T09:43:47.590Z,10.1
2023-05-17T09:46:15.271Z,13.1
2023-05-17T09:54:20.045Z,12.5
2023-05-17T09:56:54.256Z,13.7
2023-05-17T10:01:19.183Z,10.1
2023-05-17T10:06:54.210Z,12.6
2023-05-17T10:09:20.143Z,15.4
2023-05-17T10:11:31.585Z,15.8
2023-05-17T10:34:18.628Z,13.4
2023-05-17T10:37:17.516Z,18.5
2023-05-17T10:42:32.985Z,10.7
2023-05-17T10:44:48.926Z,14.8
2023-05-17T10:49:41.784Z,12.3
2023-05-17T10:54:40.665Z,12.9
2023-05-17T10:56:48.616Z,14.8
2023-05-17T10:59:46.165Z,12
2023-05-17T11:10:16.021Z,13.8
2023-05-17T11:13:05.167Z,20.6
2023-05-17T11:15:39.978Z,12.6
2023-05-17T11:20:07.063Z,11.6
2023-05-17T11:23:52.007Z,10
2023-05-17T11:25:43.718Z,9.6
2023-05-17T11:28:10.741Z,10.4
2023-05-17T11:30:22.907Z,12.7
2023-05-17T11:36:12.355Z,10.2
2023-05-17T11:41:06.231Z,10.7
2023-05-17T11:43:08.751Z,11.8
2023-05-17T11:48:41.950Z,9.5
2023-05-17T11:51:06.823Z,10.9
2023-05-17T12:01:34.632Z,13.7
2023-05-17T12:05:54.140Z,13.2
2023-05-17T12:08:46.131Z,10.6
2023-05-17T12:18:54.267Z,16.9
2023-05-17T12:24:07.607Z,13.8
2023-05-17T12:28:23.377Z,10.7
2023-05-17T12:31:13.566Z,13.7
2023-05-17T12:33:49.563Z,17.6
2023-05-17T12:41:14.431Z,11.2
2023-05-17T12:46:24.249Z,9.9
2023-05-17T12:48:37.568Z,13.2
2023-05-17T12:51:40.129Z,21.8
2023-05-17T12:57:02.661Z,14.3
2023-05-17T12:59:22.112Z,12.5
2023-05-17T13:01:02.353Z,9.1
2023-05-17T13:01:27.155Z,8
2023-05-17T13:04:22.278Z,9.8
2023-05-17T13:07:02.338Z,12.3
2023-05-17T13:09:28.355Z,14.4
2023-05-17T13:17:27.609Z,11.3
2023-05-17T13:22:17.374Z,14
2023-05-17T13:27:13.655Z,12.8
2023-05-17T13:29:52.149Z,12
2023-05-17T13:34:25.871Z,9.7
2023-05-17T13:40:09.930Z,12
2023-05-17T13:46:57.885Z,15.4
2023-05-17T13:52:25.712Z,13.7
2023-05-17T13:56:55.814Z,9.7
2023-05-17T14:05:04.663Z,8.1
2023-05-17T14:18:07.554Z,12.6
2023-05-17T14:20:13.367Z,12.1
2023-05-17T14:23:08.876Z,10.8
2023-05-17T14:28:17.154Z,9.9
2023-05-17T14:38:51.799Z,9.1
2023-05-17T14:48:48.043Z,9.8
2023-05-17T14:53:23.577Z,8.3
2023-05-17T14:56:23.507Z,10.4
2023-05-17T15:03:57.252Z,11.9
2023-05-17T15:11:29.087Z,16.7
2023-05-17T15:18:59.598Z,8.8
2023-05-17T15:21:43.298Z,9.3
2023-05-17T15:28:28.278Z,10.5
2023-05-17T15:36:15.324Z,9.5
2023-05-17T15:38:22.441Z,12.2
2023-05-17T15:41:18.879Z,13.3
2023-05-17T15:46:28.702Z,11.3
2023-05-17T15:48:41.961Z,8.4
2023-05-17T15:51:44.622Z,8.3
2023-05-17T16:01:31.368Z,13.3
2023-05-17T16:06:47.193Z,8.1
2023-05-17T16:11:48.950Z,8.5
2023-05-17T16:16:57.179Z,9.8
2023-05-17T16:19:09.905Z,13.4
2023-05-17T16:22:11.756Z,12.4
2023-05-17T16:24:59.482Z,9.7
2023-05-17T16:27:32.654Z,9.8
2023-05-17T16:31:55.929Z,9.2
2023-05-17T16:34:49.834Z,9
2023-05-17T16:37:29.597Z,8.1
2023-05-17T16:39:54.733Z,9.6
2023-05-17T16:42:05.332Z,8.9
2023-05-17T16:47:51.510Z,9.5
2023-05-17T16:54:42.368Z,9.3
2023-05-17T17:02:35.805Z,9.7
2023-05-17T17:04:44.666Z,9.1
2023-05-17T17:10:27.222Z,8.4
2023-05-17T17:12:57.061Z,11
2023-05-17T17:17:12.893Z,12.4
2023-05-17T17:25:00.897Z,6
2023-05-17T17:27:07.720Z,6.7
2023-05-17T17:30:04.303Z,7.8
2023-05-17T17:32:46.993Z,8.4
2023-05-17T17:40:31.589Z,8
2023-05-17T17:45:53.644Z,10.3
2023-05-17T17:50:18.681Z,7.2
2023-05-17T17:53:13.343Z,6.6
2023-05-17T17:58:19.914Z,8.1
2023-05-17T18:03:32.745Z,6.6
2023-05-17T18:06:19.567Z,6.5
2023-05-17T18:08:51.693Z,6.2
2023-05-17T18:11:09.627Z,14.1
2023-05-17T18:16:06.173Z,15.1
2023-05-17T18:21:09.097Z,10.7
2023-05-17T18:23:18.850Z,13.2
2023-05-17T18:29:03.240Z,9
2023-05-17T18:31:33.702Z,8.5
2023-05-17T18:35:51.381Z,8.9
2023-05-17T18:38:42.765Z,9.2
2023-05-17T18:41:19.447Z,9.6
2023-05-17T18:43:41.954Z,9.9
2023-05-17T18:48:47.480Z,9.1
2023-05-17T18:53:59.170Z,11.3
2023-05-17T18:59:17.274Z,8.4
2023-05-17T19:07:02.138Z,7.2
2023-05-17T19:09:08.383Z,4.7
2023-05-17T19:12:04.116Z,4
2023-05-17T19:14:45.385Z,6.6
2023-05-17T19:17:12.570Z,4.4
2023-05-17T19:19:24.885Z,8.1
2023-05-17T19:22:26.936Z,8.3
2023-05-17T19:30:06.516Z,6.5
2023-05-17T19:32:10.685Z,4.4
2023-05-17T19:35:04.530Z,5.9
2023-05-17T19:48:06.019Z,6.9
2023-05-17T19:52:54.364Z,7.7
2023-05-17T19:57:48.846Z,7
2023-05-17T20:00:26.543Z,7.1
2023-05-17T20:04:58.636Z,9
2023-05-17T20:07:57.255Z,10.3
2023-05-17T20:10:41.041Z,9.1
2023-05-17T20:13:10.582Z,12.9
2023-05-17T20:17:26.676Z,11.4
2023-05-17T20:20:16.914Z,9.1
2023-05-17T20:22:52.858Z,10.4
2023-05-17T20:35:27.869Z,9.4
2023-05-17T20:37:41.164Z,11.2
2023-05-17T20:48:26.461Z,11
2023-05-17T20:53:26.499Z,15.2
2023-05-17T20:58:32.666Z,11.8
2023-05-17T21:03:45.224Z,18.3
2023-05-17T21:09:04.251Z,12.4
2023-05-17T21:11:22.132Z,12.9
2023-05-17T21:13:25.459Z,14.1
2023-05-17T21:18:57.254Z,12.3
2023-05-17T21:23:30.913Z,13.9
2023-05-17T21:29:15.037Z,12.1
2023-05-17T21:31:45.449Z,10.2
2023-05-17T21:36:02.961Z,11.3
2023-05-17T21:38:54.186Z,11.7
2023-05-17T21:43:53.141Z,9.3
2023-05-17T21:48:58.678Z,12
2023-05-17T21:54:10.322Z,8.7
2023-05-17T21:56:24.691Z,9.3
2023-05-17T21:59:28.420Z,14.8
2023-05-17T22:07:13.332Z,8.3
2023-05-17T22:14:56.437Z,6.9
2023-05-17T22:17:22.843Z,6.7
2023-05-17T22:19:35.616Z,11.7
2023-05-17T22:25:24.810Z,10.6
2023-05-17T22:30:16.830Z,8.7
2023-05-17T22:35:14.914Z,6.3
2023-05-17T22:37:54.433Z,9.2
2023-05-17T22:42:29.823Z,6.5
2023-05-17T22:45:30.290Z,8
2023-05-17T22:50:47.051Z,9.5
2023-05-17T23:00:36.300Z,7.7
2023-05-17T23:05:08.597Z,8.3
2023-05-17T23:10:50.530Z,8
2023-05-17T23:20:26.806Z,11.1
2023-05-17T23:25:23.358Z,9.8
2023-05-17T23:27:30.406Z,10.1
2023-05-17T23:30:26.926Z,10.6
2023-05-17T23:33:09.027Z,11.2
2023-05-17T23:37:49.791Z,10.8
2023-05-17T23:40:52.646Z,9.8
2023-05-17T23:43:41.260Z,11.2
2023-05-17T23:46:15.160Z,13.9
2023-05-17T23:50:39.812Z,10.3
2023-05-17T23:53:34.645Z,10
2023-05-17T23:58:40.982Z,11.7
